Terminal Aerodrome Forecast
Issued by NWS

Home | Current Version | Previous Version | Graphics & Text | Print | Product List | Glossary On
Versions: 1 2 3 4 5 6 7 8 9 10 11 12 13 14 15
000
FTUS43 KGRB 131300 AAA
TAFATW
TAF AMD
KATW 131354Z 1314/1412 27012G19KT P6SM SCT010
      TEMPO 1314/1316 BKN010
     FM131600 28012G18KT P6SM SCT040
     FM140100 26004KT P6SM SCT070=

USA.gov is the U.S. government's official web portal to all federal, state and local government web resources and services.